Terminal Aerodrome Forecast
Issued by NWS

Home | Current Version | Previous Version | Text Only | Print | Product List | Glossary On
Versions: 1 2 3 4 5 6 7 8 9 10 11 12 13 14 15 16 17 18 19 20 21 22 23 24 25 26 27 28 29 30 31 32 33 34 35 36 37
000
FTUS44 KHGX 281307 AAA
TAFLBX
TAF AMD
KLBX 281307Z 2813/2912 VRB02KT P6SM SKC
     FM281400 VRB06KT P6SM FEW030
     FM281800 18008KT P6SM SCT040
     FM290300 24006KT P6SM FEW250=

USA.gov is the U.S. government's official web portal to all federal, state and local government web resources and services.